createdAt,value
2019-01-11T00:00:16.371Z,16.2
2019-01-11T00:01:06.729Z,16.1
2019-01-11T00:01:56.526Z,16.1
2019-01-11T00:02:46.850Z,16.1
2019-01-11T00:03:36.332Z,16.1
2019-01-11T00:04:26.388Z,16.1
2019-01-11T00:05:17.357Z,16
2019-01-11T00:06:05.093Z,16
2019-01-11T00:06:55.713Z,16
2019-01-11T00:07:46.868Z,16
2019-01-11T00:08:36.433Z,15.9
2019-01-11T00:09:25.875Z,15.9
2019-01-11T00:10:16.770Z,15.9
2019-01-11T00:11:07.175Z,15.9
2019-01-11T00:11:56.876Z,15.8
2019-01-11T00:12:47.222Z,15.8
2019-01-11T00:13:37.618Z,15.8
2019-01-11T00:14:27.896Z,15.8
2019-01-11T00:15:17.110Z,15.8
2019-01-11T00:16:07.750Z,15.8
2019-01-11T00:34:30.382Z,15.3
2019-01-11T00:35:21.413Z,15.3
2019-01-11T00:36:11.509Z,15.3
2019-01-11T00:37:00.759Z,15.3
2019-01-11T00:37:50.769Z,15.2
2019-01-11T00:38:40.791Z,15.2
2019-01-11T00:39:29.853Z,15.2
2019-01-11T00:40:21.266Z,15.2
2019-01-11T00:41:11.333Z,15.1
2019-01-11T00:42:00.316Z,15.1
2019-01-11T00:42:51.209Z,15.1
2019-01-11T00:43:40.933Z,15.1
2019-01-11T00:44:30.743Z,15.1
2019-01-11T00:45:21.030Z,15.1
2019-01-11T00:46:10.846Z,15.1
2019-01-11T00:47:00.528Z,15.1
2019-01-11T00:47:50.405Z,15.1
2019-01-11T00:48:40.719Z,15
2019-01-11T00:49:32.231Z,15
2019-01-11T00:50:21.935Z,15
2019-01-11T00:51:11.668Z,15
2019-01-11T00:52:01.708Z,14.9
2019-01-11T00:52:51.225Z,14.9
2019-01-11T00:53:41.868Z,14.9
2019-01-11T00:54:31.130Z,14.9
2019-01-11T00:55:22.555Z,14.9
2019-01-11T00:56:12.313Z,14.9
2019-01-11T00:57:01.843Z,14.9
2019-01-11T00:57:52.188Z,14.9
2019-01-11T00:58:42.735Z,14.9
2019-01-11T00:59:33.053Z,14.8
2019-01-11T01:00:21.749Z,14.8
2019-01-11T01:01:11.520Z,14.8
2019-01-11T01:02:01.580Z,14.8
2019-01-11T01:02:52.280Z,14.8
2019-01-11T01:03:42.615Z,14.8
2019-01-11T01:04:32.005Z,14.8
2019-01-11T01:05:21.332Z,14.8
2019-01-11T01:06:12.250Z,14.8
2019-01-11T01:07:03.037Z,14.7
2019-01-11T01:07:52.912Z,14.7
2019-01-11T01:08:42.924Z,14.7
2019-01-11T01:09:32.134Z,14.6
2019-01-11T01:10:22.532Z,14.6
2019-01-11T01:11:11.994Z,14.6
2019-01-11T01:12:02.981Z,14.6
2019-01-11T01:12:52.379Z,14.6
2019-01-11T01:13:42.687Z,14.6
2019-01-11T01:14:33.099Z,14.6
2019-01-11T01:15:23.481Z,14.6
2019-01-11T01:16:12.610Z,14.6
2019-01-11T01:17:03.200Z,14.6
2019-01-11T01:17:54.014Z,14.6
2019-01-11T01:18:44.082Z,14.5
2019-01-11T01:19:33.579Z,14.5
2019-01-11T01:20:23.726Z,14.5
2019-01-11T01:21:14.281Z,14.5
2019-01-11T01:22:04.414Z,14.5
2019-01-11T01:22:53.548Z,14.6
2019-01-11T01:23:43.879Z,14.6
2019-01-11T01:24:33.386Z,14.6
2019-01-11T01:25:23.798Z,14.8
2019-01-11T01:26:13.546Z,14.8
2019-01-11T01:27:03.053Z,14.9
2019-01-11T01:27:53.407Z,15.1
2019-01-11T01:28:43.658Z,15.4
2019-01-11T01:29:32.591Z,15.8
2019-01-11T01:30:23.988Z,16.2
2019-01-11T01:31:12.351Z,16.7
2019-01-11T01:32:04.013Z,17.1
2019-01-11T01:32:54.581Z,17.6
2019-01-11T01:33:44.328Z,18.1
2019-01-11T01:34:33.826Z,18.6
2019-01-11T01:35:24.150Z,19.1
2019-01-11T01:36:14.703Z,19.6
2019-01-11T01:37:04.795Z,20.2
2019-01-11T01:37:55.386Z,20.7
2019-01-11T01:38:44.877Z,21.3
2019-01-11T01:39:35.214Z,21.9
2019-01-11T01:40:25.272Z,22.6
2019-01-11T01:42:05.647Z,33.2
2019-01-11T01:42:55.965Z,37.1
2019-01-11T01:43:46.032Z,40.1
2019-01-11T01:44:35.053Z,42.2
2019-01-11T01:45:25.100Z,43.6
2019-01-11T01:46:15.933Z,44
2019-01-11T01:47:05.474Z,43.3
2019-01-11T01:47:54.762Z,41.9
2019-01-11T01:48:47.058Z,40.4
2019-01-11T01:49:36.099Z,39.3
2019-01-11T01:50:26.015Z,38.3
2019-01-11T01:51:15.724Z,37.4
2019-01-11T01:52:06.624Z,36.7
2019-01-11T01:52:55.887Z,35.9
2019-01-11T01:53:45.892Z,35.4
2019-01-11T01:54:36.562Z,35
2019-01-11T01:55:25.464Z,34.8
2019-01-11T01:56:15.529Z,34.9
2019-01-11T01:57:05.844Z,35.1
2019-01-11T01:57:56.471Z,35.4
2019-01-11T01:58:46.759Z,35.9
2019-01-11T01:59:35.466Z,36.3
2019-01-11T02:00:25.339Z,36.6
2019-01-11T02:01:15.374Z,36.9
2019-01-11T02:02:06.589Z,37.3
2019-01-11T02:02:56.009Z,37.7
2019-01-11T02:03:46.416Z,40.1
2019-01-11T02:04:36.515Z,41.8
2019-01-11T02:05:26.238Z,43.1
2019-01-11T02:06:17.056Z,44
2019-01-11T02:07:06.876Z,44.6
2019-01-11T02:07:56.976Z,44.8
2019-01-11T02:08:46.736Z,44.3
2019-01-11T02:09:35.660Z,43.2
2019-01-11T02:10:26.558Z,41.9
2019-01-11T02:11:17.141Z,40.9
2019-01-11T02:12:06.919Z,39.9
2019-01-11T02:12:57.498Z,39.2
2019-01-11T02:13:47.038Z,38.4
2019-01-11T02:14:36.760Z,37.7
2019-01-11T02:15:27.617Z,37.1
2019-01-11T02:16:16.977Z,36.7
2019-01-11T02:17:07.028Z,36.4
2019-01-11T02:17:57.806Z,36.4
2019-01-11T02:18:48.408Z,36.6
2019-01-11T02:19:42.532Z,36.8
2019-01-11T02:20:27.183Z,37.1
2019-01-11T02:21:16.403Z,37.4
2019-01-11T02:22:07.892Z,37.8
2019-01-11T02:22:58.162Z,38.1
2019-01-11T02:23:48.192Z,38.4
2019-01-11T02:24:38.265Z,40.5
2019-01-11T02:25:28.040Z,41.9
2019-01-11T02:26:18.480Z,42.9
2019-01-11T02:27:07.999Z,43.6
2019-01-11T02:27:57.620Z,44.1
2019-01-11T02:28:47.972Z,44.1
2019-01-11T02:29:37.284Z,43.6
2019-01-11T02:30:28.058Z,42.6
2019-01-11T02:31:18.260Z,41.6
2019-01-11T02:32:09.147Z,40.8
2019-01-11T02:33:01.998Z,40
2019-01-11T02:33:48.658Z,39.3
2019-01-11T02:34:37.892Z,38.7
2019-01-11T02:35:29.144Z,38.1
2019-01-11T02:36:17.377Z,37.6
2019-01-11T02:37:10.052Z,37.3
2019-01-11T02:37:58.970Z,37.1
2019-01-11T02:38:48.996Z,37.2
2019-01-11T02:39:38.254Z,37.4
2019-01-11T02:40:29.781Z,37.6
2019-01-11T02:41:19.467Z,37.9
2019-01-11T02:42:09.275Z,38.3
2019-01-11T02:42:58.590Z,38.5
2019-01-11T02:43:49.097Z,39
2019-01-11T02:44:40.411Z,40.7
2019-01-11T02:45:29.434Z,41.8
2019-01-11T02:46:18.386Z,42.3
2019-01-11T02:47:10.101Z,42.6
2019-01-11T02:48:00.180Z,42.7
2019-01-11T02:48:49.931Z,42.6
2019-01-11T02:49:46.637Z,42.3
2019-01-11T02:50:30.695Z,41.9
2019-01-11T02:51:19.945Z,41.4
2019-01-11T02:52:11.007Z,41
2019-01-11T02:53:00.042Z,40.7
2019-01-11T02:53:50.328Z,41.7
2019-01-11T02:54:40.378Z,41.8
2019-01-11T02:55:30.704Z,41.4
2019-01-11T02:56:20.459Z,40.9
2019-01-11T02:57:10.000Z,40.4
2019-01-11T02:58:00.504Z,40
2019-01-11T02:58:50.356Z,39.5
2019-01-11T02:59:40.430Z,38.9
2019-01-11T03:00:30.232Z,38.5
2019-01-11T03:01:20.005Z,38.2
2019-01-11T03:02:10.409Z,38
2019-01-11T03:03:00.370Z,37.9
2019-01-11T03:03:50.170Z,38
2019-01-11T03:04:40.202Z,38.1
2019-01-11T03:05:32.080Z,38.3
2019-01-11T03:06:20.567Z,38.4
2019-01-11T03:07:11.456Z,38.6
2019-01-11T03:08:00.395Z,38.9
2019-01-11T03:08:51.596Z,40.2
2019-01-11T03:09:41.380Z,41.4
2019-01-11T03:10:29.435Z,41.9
2019-01-11T03:11:21.737Z,42.3
2019-01-11T03:12:11.283Z,42.3
2019-01-11T03:13:01.341Z,42.1
2019-01-11T03:13:51.109Z,41.9
2019-01-11T03:14:41.719Z,41.5
2019-01-11T03:15:30.999Z,41.1
2019-01-11T03:16:22.314Z,40.7
2019-01-11T03:17:11.889Z,40.3
2019-01-11T03:18:01.627Z,41.3
2019-01-11T03:18:51.736Z,41.9
2019-01-11T03:19:49.084Z,41.9
2019-01-11T03:20:32.142Z,41.6
2019-01-11T03:21:22.474Z,41.1
2019-01-11T03:22:11.659Z,40.7
2019-01-11T03:23:01.777Z,40.2
2019-01-11T03:23:52.072Z,39.7
2019-01-11T03:24:42.401Z,39.2
2019-01-11T03:25:31.901Z,38.8
2019-01-11T03:26:22.453Z,38.5
2019-01-11T03:27:12.253Z,38.4
2019-01-11T03:28:02.970Z,38.4
2019-01-11T03:28:52.170Z,38.4
2019-01-11T03:29:43.063Z,38.6
2019-01-11T03:30:32.497Z,38.8
2019-01-11T03:31:22.983Z,39.6
2019-01-11T03:32:13.151Z,40.9
2019-01-11T03:33:02.453Z,41.6
2019-01-11T03:33:51.877Z,41.7
2019-01-11T03:34:43.083Z,41.6
2019-01-11T03:35:33.275Z,41.4
2019-01-11T03:36:23.475Z,41.1
2019-01-11T03:37:13.577Z,40.7
2019-01-11T03:38:02.143Z,40.3
2019-01-11T03:38:53.097Z,39.9
2019-01-11T03:39:42.887Z,39.5
2019-01-11T03:40:33.811Z,39.3
2019-01-11T03:41:22.685Z,39.2
2019-01-11T03:42:14.170Z,39.2
2019-01-11T03:43:03.710Z,39.3
2019-01-11T03:43:53.962Z,40.8
2019-01-11T03:44:43.493Z,41.6
2019-01-11T03:45:35.157Z,41.9
2019-01-11T03:46:23.862Z,41.8
2019-01-11T03:47:13.674Z,41.6
2019-01-11T03:48:04.899Z,41.3
2019-01-11T03:48:54.102Z,40.9
2019-01-11T03:49:44.064Z,40.4
2019-01-11T03:50:33.328Z,40
2019-01-11T03:51:24.252Z,39.6
2019-01-11T03:52:13.399Z,39.4
2019-01-11T03:53:03.817Z,39.3
2019-01-11T03:53:53.774Z,39.6
2019-01-11T03:54:42.246Z,41.1
2019-01-11T03:55:33.892Z,41.7
2019-01-11T03:56:25.199Z,41.8
2019-01-11T03:57:14.388Z,41.6
2019-01-11T03:58:04.386Z,41.4
2019-01-11T03:58:53.831Z,41
2019-01-11T03:59:44.793Z,40.6
2019-01-11T04:00:34.794Z,40.1
2019-01-11T04:01:23.784Z,39.7
2019-01-11T04:02:13.829Z,39.3
2019-01-11T04:03:04.171Z,39.1
2019-01-11T04:03:53.948Z,39
2019-01-11T04:04:43.416Z,38.9
2019-01-11T04:05:35.150Z,39.1
2019-01-11T04:06:25.563Z,40.5
2019-01-11T04:07:14.693Z,41.4
2019-01-11T04:08:05.303Z,41.7
2019-01-11T04:08:54.964Z,41.6
2019-01-11T04:09:44.933Z,41.4
2019-01-11T04:10:34.451Z,41.1
2019-01-11T04:11:25.898Z,40.8
2019-01-11T04:12:14.505Z,40.4
2019-01-11T04:13:05.653Z,39.9
2019-01-11T04:13:55.413Z,39.5
2019-01-11T04:14:45.808Z,39.2
2019-01-11T04:15:36.122Z,39.1
2019-01-11T04:16:24.963Z,39.1
2019-01-11T04:17:16.201Z,39.9
2019-01-11T04:18:05.965Z,41.3
2019-01-11T04:18:56.292Z,41.8
2019-01-11T04:19:45.815Z,41.9
2019-01-11T04:20:36.168Z,41.8
2019-01-11T04:21:25.927Z,41.5
2019-01-11T04:22:15.217Z,41.1
2019-01-11T04:23:06.318Z,40.7
2019-01-11T04:23:55.670Z,40.3
2019-01-11T04:24:47.365Z,39.8
2019-01-11T04:25:36.334Z,39.4
2019-01-11T04:26:26.333Z,39.2
2019-01-11T04:27:16.406Z,39.1
2019-01-11T04:28:07.257Z,39.1
2019-01-11T04:28:56.289Z,40.6
2019-01-11T04:29:45.702Z,41.4
2019-01-11T04:30:36.138Z,41.7
2019-01-11T04:31:26.378Z,41.6
2019-01-11T04:32:15.920Z,41.4
2019-01-11T04:33:07.334Z,41.1
2019-01-11T04:33:57.390Z,40.7
2019-01-11T04:34:46.069Z,40.3
2019-01-11T04:35:37.492Z,39.8
2019-01-11T04:36:27.527Z,39.4
2019-01-11T04:37:16.758Z,39.1
2019-01-11T04:38:06.889Z,39
2019-01-11T04:38:56.386Z,38.9
2019-01-11T04:39:47.353Z,39
2019-01-11T04:40:43.214Z,40.3
2019-01-11T04:41:26.561Z,41.4
2019-01-11T04:42:17.170Z,41.8
2019-01-11T04:43:08.018Z,41.8
2019-01-11T04:43:56.466Z,41.6
2019-01-11T04:44:47.908Z,41.4
2019-01-11T04:45:37.733Z,41
2019-01-11T04:46:27.971Z,40.6
2019-01-11T05:04:04.847Z,41.3
2019-01-11T05:05:02.737Z,41.6
2019-01-11T05:05:32.328Z,41.4
2019-01-11T05:07:34.676Z,41.2
2019-01-11T05:08:02.999Z,40.3
2019-01-11T05:09:20.611Z,40
2019-01-11T05:10:01.745Z,39.3
2019-01-11T05:10:39.392Z,39.1
2019-01-11T05:12:17.620Z,39
2019-01-11T09:18:15.671Z,41.6
2019-01-11T09:19:05.821Z,41.1
2019-01-11T09:19:56.083Z,40.6
2019-01-11T09:20:47.206Z,40.1
2019-01-11T09:21:43.908Z,39.8
2019-01-11T09:22:27.292Z,39.5
2019-01-11T09:23:15.500Z,39.4
2019-01-11T09:24:06.658Z,39.9
2019-01-11T09:24:56.405Z,41.4
2019-01-11T09:25:45.908Z,42.1
2019-01-11T09:26:36.206Z,42.4
2019-01-11T09:27:25.711Z,42.4
2019-01-11T09:28:17.507Z,42.2
2019-01-11T09:29:07.285Z,41.8
2019-01-11T09:29:56.963Z,41.4
2019-01-11T09:30:46.747Z,41
2019-01-11T09:31:37.073Z,40.5
2019-01-11T09:32:27.190Z,40
2019-01-11T09:33:23.775Z,39.6
2019-01-11T09:34:07.798Z,39.4
2019-01-11T09:34:57.625Z,40.7
2019-01-11T09:35:47.445Z,41.6
2019-01-11T09:36:36.705Z,41.9
2019-01-11T09:37:26.952Z,41.9
2019-01-11T09:38:18.658Z,41.7
2019-01-11T09:39:07.130Z,41.4
2019-01-11T09:39:57.997Z,40.9
2019-01-11T09:40:47.490Z,40.6
2019-01-11T09:41:37.504Z,40.1
2019-01-11T09:42:27.314Z,39.6
2019-01-11T09:43:17.665Z,39.3
2019-01-11T09:44:07.418Z,39.1
2019-01-11T09:44:58.052Z,39.1
2019-01-11T09:45:48.053Z,39.2
2019-01-11T09:46:38.377Z,40.9
2019-01-11T09:47:28.415Z,41.8
2019-01-11T09:48:17.732Z,42.2
2019-01-11T09:49:07.721Z,42.3
2019-01-11T09:49:58.241Z,42.1
2019-01-11T09:50:47.919Z,41.8
2019-01-11T09:51:38.002Z,41.4
2019-01-11T09:52:27.936Z,40.9
2019-01-11T09:53:18.027Z,40.4
2019-01-11T09:54:08.916Z,40
2019-01-11T09:54:58.680Z,39.6
2019-01-11T09:55:47.891Z,40.3
2019-01-11T09:56:38.817Z,41.6
2019-01-11T09:57:28.551Z,42.1
2019-01-11T09:58:19.204Z,42.2
2019-01-11T09:59:08.590Z,41.9
2019-01-11T09:59:58.981Z,41.6
2019-01-11T10:00:50.387Z,41.2
2019-01-11T10:01:38.883Z,40.8
2019-01-11T10:02:29.625Z,40.3
2019-01-11T10:03:20.148Z,39.8
2019-01-11T10:04:09.423Z,39.3
2019-01-11T10:04:58.915Z,39
2019-01-11T10:05:49.118Z,38.8
2019-01-11T10:06:39.250Z,38.9
2019-01-11T10:07:28.963Z,39.1
2019-01-11T10:08:19.595Z,40.8
2019-01-11T10:09:09.350Z,41.6
2019-01-11T10:09:59.953Z,41.8
2019-01-11T10:10:49.185Z,41.8
2019-01-11T10:11:38.960Z,41.6
2019-01-11T10:12:29.597Z,41.3
2019-01-11T10:13:19.627Z,40.9
2019-01-11T10:14:09.719Z,40.4
2019-01-11T10:15:00.046Z,39.9
2019-01-11T10:15:50.642Z,39.5
2019-01-11T10:16:39.877Z,39.2
2019-01-11T10:17:30.225Z,39.5
2019-01-11T10:18:20.245Z,40.9
2019-01-11T10:19:10.315Z,41.6
2019-01-11T10:19:59.851Z,41.8
2019-01-11T10:20:50.432Z,41.6
2019-01-11T10:21:39.385Z,41.3
2019-01-11T10:22:30.538Z,41
2019-01-11T10:23:20.326Z,40.6
2019-01-11T10:24:10.724Z,40.1
2019-01-11T10:25:00.822Z,39.6
2019-01-11T10:25:49.965Z,39.3
2019-01-11T10:26:40.559Z,39.1
2019-01-11T10:27:30.375Z,38.9
2019-01-11T10:28:21.180Z,39
2019-01-11T10:29:10.432Z,39.9
2019-01-11T10:29:59.102Z,41.3
2019-01-11T10:30:51.647Z,41.8
2019-01-11T10:31:40.858Z,42
2019-01-11T10:32:30.669Z,41.9
2019-01-11T10:33:21.263Z,41.7
2019-01-11T10:34:11.048Z,41.3
2019-01-11T10:35:01.648Z,40.9
2019-01-11T10:35:50.888Z,40.5
2019-01-11T10:36:41.469Z,40.1
2019-01-11T10:37:31.045Z,39.7
2019-01-11T10:38:21.608Z,39.4
2019-01-11T10:39:11.670Z,39.4
2019-01-11T10:40:02.054Z,40.3
2019-01-11T10:40:52.119Z,41.5
2019-01-11T10:41:42.095Z,42.1
2019-01-11T10:42:31.363Z,42.1
2019-01-11T10:43:21.096Z,42
2019-01-11T10:44:12.011Z,41.7
2019-01-11T10:45:02.398Z,41.3
2019-01-11T10:45:51.851Z,40.8
2019-01-11T10:46:41.608Z,40.3
2019-01-11T10:47:32.483Z,39.8
2019-01-11T10:48:21.998Z,39.4
2019-01-11T10:49:12.623Z,39.1
2019-01-11T10:50:01.871Z,39
2019-01-11T10:50:51.958Z,39
2019-01-11T10:51:42.775Z,40.6
2019-01-11T10:52:32.270Z,41.6
2019-01-11T10:53:21.015Z,42.1
2019-01-11T10:54:11.365Z,42.1
2019-01-11T10:55:01.404Z,42.1
2019-01-11T10:55:52.485Z,41.8
2019-01-11T10:56:42.855Z,41.3
2019-01-11T10:57:33.335Z,40.9
2019-01-11T10:58:22.390Z,40.4
2019-01-11T10:59:13.305Z,39.9
2019-01-11T11:00:03.322Z,39.6
2019-01-11T11:00:53.314Z,40.4
2019-01-11T11:01:42.862Z,41.4
2019-01-11T11:02:33.191Z,41.8
2019-01-11T11:03:23.344Z,41.7
2019-01-11T11:04:13.056Z,41.4
2019-01-11T11:05:01.991Z,41.1
2019-01-11T11:05:53.259Z,40.7
2019-01-11T11:06:43.276Z,40.2
2019-01-11T11:07:33.090Z,39.8
2019-01-11T11:08:24.492Z,39.3
2019-01-11T11:09:13.979Z,38.9
2019-01-11T11:10:03.819Z,38.7
2019-01-11T11:10:52.931Z,38.6
2019-01-11T11:11:44.142Z,38.6
2019-01-11T11:12:34.161Z,38.8
2019-01-11T11:13:23.941Z,40.3
2019-01-11T11:14:13.794Z,41.3
2019-01-11T11:15:03.834Z,41.8
2019-01-11T11:15:54.384Z,41.9
2019-01-11T11:16:44.213Z,41.8
2019-01-11T11:17:33.719Z,41.6
2019-01-11T11:18:24.273Z,41.2
2019-01-11T11:19:14.301Z,40.8
2019-01-11T11:20:03.491Z,40.4
2019-01-11T11:20:54.008Z,39.9
2019-01-11T11:21:44.028Z,39.6
2019-01-11T11:22:33.558Z,39.3
2019-01-11T11:23:23.901Z,40.4
2019-01-11T11:24:13.075Z,41.4
2019-01-11T11:25:04.280Z,41.7
2019-01-11T11:25:54.315Z,41.6
2019-01-11T11:26:43.857Z,41.3
2019-01-11T11:27:33.557Z,41
2019-01-11T11:28:24.189Z,40.6
2019-01-11T11:29:16.292Z,40.1
2019-01-11T11:30:04.385Z,39.6
2019-01-11T11:31:00.271Z,39.2
2019-01-11T11:31:45.000Z,38.8
2019-01-11T11:32:34.818Z,38.6
2019-01-11T11:33:23.750Z,38.5
2019-01-11T11:34:14.862Z,38.5
2019-01-11T11:35:04.377Z,38.7
2019-01-11T11:35:54.977Z,40.3
2019-01-11T11:36:45.110Z,41.4
2019-01-11T11:37:34.849Z,41.9
2019-01-11T11:38:25.385Z,42
2019-01-11T11:39:15.192Z,41.9
2019-01-11T11:40:03.992Z,41.7
2019-01-11T11:40:54.502Z,41.4
2019-01-11T11:41:44.887Z,40.9
2019-01-11T11:42:34.672Z,40.4
2019-01-11T11:43:25.472Z,40
2019-01-11T11:44:14.967Z,39.6
2019-01-11T11:45:05.654Z,39.3
2019-01-11T11:45:55.690Z,40.2
2019-01-11T11:46:45.209Z,41.3
2019-01-11T11:47:35.342Z,41.6
2019-01-11T11:48:26.164Z,41.5
2019-01-11T11:49:16.106Z,41.3
2019-01-11T11:50:06.201Z,40.9
2019-01-11T11:50:56.201Z,40.5
2019-01-11T11:51:50.992Z,40
2019-01-11T11:52:36.129Z,39.5
2019-01-11T11:53:27.749Z,39.1
2019-01-11T11:54:15.654Z,38.8
2019-01-11T11:55:05.451Z,38.6
2019-01-11T11:55:56.043Z,38.6
2019-01-11T11:56:47.688Z,38.7
2019-01-11T11:57:37.984Z,38.9
2019-01-11T11:58:26.761Z,40.6
2019-01-11T11:59:16.806Z,41.5
2019-01-11T12:00:06.021Z,42.1
2019-01-11T12:00:56.946Z,42.3
2019-01-11T12:01:55.268Z,42.2
2019-01-11T12:02:37.876Z,41.9
2019-01-11T12:03:26.766Z,41.6
2019-01-11T12:04:17.063Z,41.1
2019-01-11T12:05:06.935Z,40.7
2019-01-11T12:05:56.980Z,40.2
2019-01-11T12:06:46.743Z,39.8
2019-01-11T12:07:37.310Z,39.6
2019-01-11T12:08:27.370Z,40.9
2019-01-11T12:09:17.710Z,41.8
2019-01-11T12:10:07.777Z,42.1
2019-01-11T12:10:58.143Z,42
2019-01-11T12:11:47.597Z,41.7
2019-01-11T12:12:39.117Z,41.3
2019-01-11T12:13:27.759Z,40.9
2019-01-11T12:14:18.315Z,40.4
2019-01-11T12:15:07.840Z,39.9
2019-01-11T12:15:57.302Z,39.4
2019-01-11T12:16:48.245Z,39.1
2019-01-11T12:17:39.434Z,38.9
2019-01-11T12:18:28.665Z,38.9
2019-01-11T12:19:18.210Z,39
2019-01-11T12:20:08.537Z,40.2
2019-01-11T12:20:57.670Z,41.3
2019-01-11T12:21:54.767Z,41.9
2019-01-11T12:22:39.845Z,42
2019-01-11T12:23:28.967Z,41.9
2019-01-11T12:24:19.329Z,41.7
2019-01-11T12:25:08.274Z,41.3
2019-01-11T12:25:58.277Z,40.9
2019-01-11T12:26:48.177Z,40.4
2019-01-11T12:27:38.202Z,40
2019-01-11T12:28:27.697Z,39.6
2019-01-11T12:29:18.321Z,39.4
2019-01-11T12:30:08.399Z,39.6
2019-01-11T12:30:57.881Z,41.1
2019-01-11T12:31:47.894Z,41.8
2019-01-11T12:32:39.011Z,41.9
2019-01-11T12:33:28.129Z,41.8
2019-01-11T12:34:18.456Z,41.5
2019-01-11T12:35:08.214Z,41.2
2019-01-11T12:35:59.141Z,40.8
2019-01-11T12:36:48.538Z,40.3
2019-01-11T12:37:38.104Z,39.8
2019-01-11T12:38:28.481Z,39.4
2019-01-11T12:39:19.530Z,39.2
2019-01-11T12:40:09.554Z,39.1
2019-01-11T12:40:59.550Z,40.5
2019-01-11T12:41:50.225Z,41.4
2019-01-11T12:42:38.879Z,41.8
2019-01-11T12:43:29.774Z,41.9
2019-01-11T12:44:20.370Z,41.7
2019-01-11T12:45:09.646Z,41.4
2019-01-11T12:46:00.429Z,40.9
2019-01-11T12:46:49.669Z,40.6
2019-01-11T12:47:40.573Z,40.1
2019-01-11T12:48:29.309Z,39.7
2019-01-11T12:49:19.902Z,39.4
2019-01-11T12:50:10.485Z,39.2
2019-01-11T12:50:59.686Z,39.3
2019-01-11T12:51:56.581Z,40.9
2019-01-11T12:52:40.965Z,41.8
2019-01-11T12:53:30.998Z,41.9
2019-01-11T12:54:20.422Z,41.9
2019-01-11T12:55:10.603Z,41.8
2019-01-11T12:56:00.629Z,41.4
2019-01-11T12:56:51.220Z,41
2019-01-11T12:57:41.027Z,40.5
2019-01-11T12:58:30.450Z,39.9
2019-01-11T12:59:20.463Z,39.4
2019-01-11T13:00:10.608Z,39.1
2019-01-11T13:01:00.625Z,39
2019-01-11T13:01:50.507Z,39.3
2019-01-11T13:02:41.165Z,40.8
2019-01-11T13:03:31.399Z,41.4
2019-01-11T13:04:20.637Z,41.6
2019-01-11T13:05:09.925Z,41.6
2019-01-11T13:06:02.063Z,41.3
2019-01-11T13:06:51.825Z,40.9
2019-01-11T13:07:41.144Z,40.6
2019-01-11T13:08:30.929Z,40.1
2019-01-11T13:09:21.526Z,39.7
2019-01-11T13:10:11.604Z,39.3
2019-01-11T13:11:00.812Z,38.9
2019-01-11T13:11:51.966Z,38.8
2019-01-11T13:12:42.154Z,38.6
2019-01-11T13:13:31.549Z,38.7
2019-01-11T13:14:21.594Z,38.8
2019-01-11T13:15:12.169Z,38.9
2019-01-11T13:16:02.292Z,39
2019-01-11T13:16:51.851Z,39.1
2019-01-11T13:17:40.831Z,39.3
2019-01-11T13:18:30.841Z,39.3
2019-01-11T13:19:21.209Z,39.4
2019-01-11T13:20:11.003Z,39.5
2019-01-11T13:21:01.626Z,39.6
2019-01-11T13:21:51.668Z,39.6
2019-01-11T13:22:43.019Z,39.6
2019-01-11T13:23:32.268Z,39.6
2019-01-11T13:24:22.274Z,39.6
2019-01-11T13:25:12.958Z,39.6
2019-01-11T13:26:02.963Z,39.7
2019-01-11T13:26:53.318Z,39.8
2019-01-11T13:27:42.516Z,39.8
2019-01-11T13:28:31.423Z,39.9
2019-01-11T13:29:22.183Z,39.9
2019-01-11T13:30:12.801Z,39.9
2019-01-11T13:31:02.743Z,39.9
2019-01-11T13:31:52.284Z,39.9
2019-01-11T13:32:42.406Z,39.9
2019-01-11T13:33:32.695Z,39.8
2019-01-11T13:34:22.770Z,39.9
2019-01-11T13:35:12.508Z,39.9
2019-01-11T13:36:02.565Z,39.9
2019-01-11T13:37:00.726Z,39.9
2019-01-11T13:37:43.939Z,39.9
2019-01-11T13:38:33.709Z,39.9
2019-01-11T13:39:24.340Z,39.9
2019-01-11T13:40:13.249Z,39.9
2019-01-11T13:41:04.147Z,39.9
2019-01-11T13:41:54.784Z,39.9
2019-01-11T13:42:44.562Z,39.9
2019-01-11T13:43:33.565Z,39.9
2019-01-11T13:44:23.324Z,39.9
2019-01-11T13:45:14.277Z,39.8
2019-01-11T13:46:03.925Z,39.8
2019-01-11T13:46:54.287Z,39.7
2019-01-11T13:47:43.040Z,39.6
2019-01-11T13:48:33.097Z,39.6
2019-01-11T13:49:23.744Z,39.6
2019-01-11T13:50:13.507Z,39.6
2019-01-11T13:51:05.497Z,39.5
2019-01-11T13:51:54.135Z,39.4
2019-01-11T13:52:44.492Z,39.4
2019-01-11T13:53:34.252Z,39.4
2019-01-11T13:54:23.794Z,39.3
2019-01-11T13:55:14.009Z,39.3
2019-01-11T13:56:03.581Z,39.3
2019-01-11T13:56:54.159Z,39.3
2019-01-11T13:57:45.271Z,39.3
2019-01-11T13:58:35.149Z,39.3
2019-01-11T13:59:24.650Z,39.2
2019-01-11T14:16:57.498Z,38.1
2019-01-11T14:17:47.015Z,37.9
2019-01-11T14:18:35.940Z,37.9
2019-01-11T14:19:28.033Z,37.8
2019-01-11T14:20:16.086Z,37.8
2019-01-11T14:21:07.506Z,37.8
2019-01-11T14:21:57.385Z,37.8
2019-01-11T14:22:47.929Z,37.8
2019-01-11T14:23:36.342Z,37.8
2019-01-11T14:24:26.417Z,37.7
2019-01-11T14:25:18.801Z,37.6
2019-01-11T14:26:07.635Z,37.6
2019-01-11T14:26:57.917Z,37.5
2019-01-11T14:27:47.492Z,37.4
2019-01-11T14:28:36.966Z,37.4
2019-01-11T14:29:27.590Z,37.4
2019-01-11T14:30:17.139Z,37.3
2019-01-11T14:31:06.895Z,37.3
2019-01-11T14:31:57.242Z,37.3
2019-01-11T14:32:47.822Z,37.2
2019-01-11T14:33:38.347Z,37.1
2019-01-11T14:34:28.194Z,37
2019-01-11T14:35:17.913Z,36.9
2019-01-11T14:36:07.652Z,36.9
2019-01-11T14:36:59.407Z,36.8
2019-01-11T14:37:47.852Z,36.8
2019-01-11T14:38:37.901Z,36.8
2019-01-11T14:39:28.011Z,36.8
2019-01-11T14:40:17.534Z,36.7
2019-01-11T14:41:08.026Z,36.6
2019-01-11T14:41:59.029Z,36.6
2019-01-11T14:42:47.785Z,36.6
2019-01-11T14:43:38.481Z,36.5
2019-01-11T14:44:28.269Z,36.4
2019-01-11T14:45:18.033Z,36.4
2019-01-11T14:46:08.971Z,36.3
2019-01-11T14:46:59.236Z,36.3
2019-01-11T14:47:49.386Z,36.2
2019-01-11T14:48:38.551Z,36.1
2019-01-11T14:49:29.953Z,36.1
2019-01-11T14:50:18.131Z,36.1
2019-01-11T14:51:09.303Z,36
2019-01-11T14:51:59.338Z,36
2019-01-11T14:52:49.441Z,35.9
2019-01-11T14:53:39.235Z,35.9
2019-01-11T14:54:28.655Z,35.8
2019-01-11T14:55:19.266Z,35.8
2019-01-11T14:56:09.312Z,35.8
2019-01-11T14:56:59.160Z,35.7
2019-01-11T14:57:49.550Z,32.6
2019-01-11T14:58:39.825Z,29
2019-01-11T14:59:29.820Z,26.6
2019-01-11T15:00:19.815Z,25.1
2019-01-11T15:01:10.108Z,24.4
2019-01-11T15:02:00.315Z,24
2019-01-11T15:02:49.578Z,23.9
2019-01-11T15:03:39.290Z,30.1
2019-01-11T15:04:30.172Z,32
2019-01-11T15:05:19.290Z,32.2
2019-01-11T15:06:09.825Z,32.5
2019-01-11T15:06:59.647Z,32.8
2019-01-11T15:07:49.862Z,33.1
2019-01-11T15:08:40.669Z,33.3
2019-01-11T15:09:30.019Z,33.3
2019-01-11T15:10:19.685Z,33.1
2019-01-11T15:11:09.344Z,32.9
2019-01-11T15:11:59.958Z,32.8
2019-01-11T15:12:50.017Z,32.5
2019-01-11T15:13:40.026Z,32.8
2019-01-11T15:14:30.052Z,33.8
2019-01-11T15:15:19.832Z,35.3
2019-01-11T15:16:09.879Z,36.9
2019-01-11T15:17:00.244Z,37.8
2019-01-11T15:17:51.176Z,35.6
2019-01-11T15:18:40.334Z,33.9
2019-01-11T15:19:30.654Z,33
2019-01-11T15:20:21.244Z,33
2019-01-11T15:21:09.974Z,33.5
2019-01-11T15:22:00.502Z,34.1
2019-01-11T15:22:51.141Z,34.9
2019-01-11T15:23:41.811Z,35.6
2019-01-11T15:24:31.491Z,36.3
2019-01-11T15:25:21.568Z,36.8
2019-01-11T15:26:11.363Z,37.3
2019-01-11T15:27:01.410Z,37.7
2019-01-11T15:27:51.733Z,37.9
2019-01-11T15:28:41.593Z,38.1
2019-01-11T15:29:31.621Z,38.2
2019-01-11T15:30:21.878Z,38.3
2019-01-11T15:31:11.686Z,38.2
2019-01-11T15:32:02.265Z,38.1
2019-01-11T15:32:51.313Z,37.9
2019-01-11T15:33:41.602Z,37.8
2019-01-11T15:34:32.215Z,37.6
2019-01-11T15:35:21.385Z,37.4
2019-01-11T15:36:12.543Z,37.2
2019-01-11T15:37:02.319Z,36.9
2019-01-11T15:37:52.980Z,36.7
2019-01-11T15:38:42.244Z,36.5
2019-01-11T15:39:31.991Z,36.3
2019-01-11T15:40:22.578Z,36.1
2019-01-11T15:41:13.195Z,35.8
2019-01-11T15:42:02.422Z,35.6
2019-01-11T15:42:52.727Z,35.4
2019-01-11T15:43:42.334Z,35.4
2019-01-11T15:44:31.470Z,35.6
2019-01-11T15:45:22.056Z,36
2019-01-11T15:46:19.337Z,36.6
2019-01-11T15:47:03.271Z,37.5
2019-01-11T15:47:53.370Z,38.3
2019-01-11T15:48:43.099Z,39.1
2019-01-11T15:49:34.049Z,37.2
2019-01-11T15:50:23.774Z,35
2019-01-11T15:51:13.579Z,33.8
2019-01-11T15:52:03.322Z,33.8
2019-01-11T15:52:53.123Z,34.5
2019-01-11T15:53:43.923Z,35.7
2019-01-11T15:54:32.976Z,37.3
2019-01-11T15:55:23.310Z,38.9
2019-01-11T15:56:12.807Z,40.6
2019-01-11T15:57:03.753Z,42.4
2019-01-11T15:57:54.761Z,44.1
2019-01-11T15:58:43.504Z,45.2
2019-01-11T15:59:33.872Z,42.3
2019-01-11T16:00:23.879Z,39.5
2019-01-11T16:01:13.699Z,38.2
2019-01-11T16:02:04.017Z,38.3
2019-01-11T16:02:53.231Z,39.1
2019-01-11T16:03:43.556Z,40.4
2019-01-11T16:04:34.168Z,42.2
2019-01-11T16:05:23.713Z,44.1
2019-01-11T16:06:14.556Z,45.6
2019-01-11T16:07:04.052Z,43.1
2019-01-11T16:07:55.339Z,40.5